Time;durP1;ratioP1;P1;durP2;ratioP2;P2;SDS_P1;SDS_P2;PMS_P1;PMS_P2;Temp;Humidity;BMP_temperature;BMP_pressure;BME280_temperature;BME280_humidity;BME280_pressure;Samples;Min_cycle;Max_cycle;Signal;HPM_P1;HPM_P2
2023/12/14 00:02:20;;;;;;;113.40;34.67;;;1.60;99.90;;;;;;5032937;28;20018;-75
2023/12/14 00:04:46;;;;;;;91.22;31.50;;;1.60;99.90;;;;;;5048309;28;20469;-75
2023/12/14 00:07:14;;;;;;;113.07;35.30;;;1.50;99.90;;;;;;5032909;28;20092;-78
2023/12/14 00:09:40;;;;;;;99.60;34.13;;;1.50;99.90;;;;;;5033073;28;20030;-75
2023/12/14 00:12:06;;;;;;;75.43;30.20;;;1.60;99.90;;;;;;5032856;28;20035;-75
2023/12/14 00:14:31;;;;;;;83.05;30.23;;;1.50;99.90;;;;;;5048431;28;20083;-78
2023/12/14 00:16:59;;;;;;;76.38;30.17;;;1.60;99.90;;;;;;5048058;28;20399;-76
2023/12/14 00:19:24;;;;;;;119.20;37.20;;;1.60;99.90;;;;;;5032985;28;20028;-78
2023/12/14 00:21:50;;;;;;;82.43;28.85;;;1.60;99.90;;;;;;5047892;28;20017;-75
2023/12/14 00:24:16;;;;;;;75.85;27.75;;;1.60;99.90;;;;;;5033052;28;20029;-75
2023/12/14 00:26:41;;;;;;;88.18;29.38;;;1.60;99.90;;;;;;5032623;28;20406;-76
2023/12/14 00:29:07;;;;;;;70.70;28.45;;;1.60;99.90;;;;;;5032818;28;20032;-78
2023/12/14 00:31:32;;;;;;;82.85;28.88;;;1.60;99.90;;;;;;5026152;28;20096;-76
2023/12/14 00:33:58;;;;;;;87.25;30.52;;;1.50;99.90;;;;;;5023832;28;20045;-78
2023/12/14 00:36:24;;;;;;;70.65;26.63;;;1.50;99.90;;;;;;5018423;28;20022;-78
2023/12/14 00:38:49;;;;;;;78.85;27.38;;;1.50;99.90;;;;;;5032812;28;20419;-78
2023/12/14 00:41:15;;;;;;;77.13;28.33;;;1.60;99.90;;;;;;5047790;28;20017;-75
2023/12/14 00:43:40;;;;;;;57.65;25.40;;;1.50;99.90;;;;;;5028156;28;20025;-73
2023/12/14 00:46:07;;;;;;;58.80;25.40;;;1.50;99.90;;;;;;5029900;28;20535;-76
2023/12/14 00:48:33;;;;;;;71.13;26.90;;;1.50;99.90;;;;;;5048261;28;20399;-73
2023/12/14 00:50:58;;;;;;;77.88;28.50;;;1.50;99.90;;;;;;5034241;28;20021;-77
2023/12/14 00:53:24;;;;;;;70.43;26.33;;;1.50;99.90;;;;;;5027453;28;20026;-75
2023/12/14 00:55:49;;;;;;;87.00;29.98;;;1.50;99.90;;;;;;5032094;28;20030;-78
2023/12/14 00:58:15;;;;;;;67.28;27.70;;;1.50;99.90;;;;;;5036716;28;20060;-75
2023/12/14 01:00:42;;;;;;;107.68;33.45;;;1.50;99.90;;;;;;5036316;28;20022;-78
2023/12/14 01:03:08;;;;;;;85.82;30.13;;;1.50;99.90;;;;;;5031922;28;20021;-78
2023/12/14 01:05:33;;;;;;;74.97;26.23;;;1.50;99.90;;;;;;5031835;28;20021;-75
2023/12/14 01:07:59;;;;;;;98.28;30.70;;;1.50;99.90;;;;;;5036491;28;20018;-78
2023/12/14 01:10:25;;;;;;;90.68;27.85;;;1.50;99.90;;;;;;5033991;28;20419;-75
2023/12/14 01:12:51;;;;;;;80.78;28.67;;;1.50;99.90;;;;;;5035108;28;20022;-78
2023/12/14 01:15:16;;;;;;;69.00;27.60;;;1.50;99.90;;;;;;5034127;28;20033;-78
2023/12/14 01:17:42;;;;;;;87.95;26.08;;;1.50;99.90;;;;;;5031723;28;20093;-75
2023/12/14 01:20:08;;;;;;;87.57;31.17;;;1.50;99.90;;;;;;5031262;28;20025;-75
2023/12/14 01:22:34;;;;;;;136.27;34.50;;;1.50;99.90;;;;;;5036201;28;20040;-78
2023/12/14 01:25:00;;;;;;;135.30;38.15;;;1.60;99.90;;;;;;5035909;28;20022;-78
2023/12/14 01:27:25;;;;;;;165.98;39.00;;;1.50;99.90;;;;;;5035587;28;20021;-75
2023/12/14 01:29:51;;;;;;;102.35;31.50;;;1.60;99.90;;;;;;5030510;28;20446;-78
2023/12/14 01:32:17;;;;;;;95.10;34.38;;;1.50;99.90;;;;;;5034525;28;20144;-78
2023/12/14 01:34:43;;;;;;;93.68;37.80;;;1.50;99.90;;;;;;5035197;28;20056;-78
2023/12/14 01:37:09;;;;;;;128.82;47.22;;;1.50;99.90;;;;;;5036033;28;20808;-78
2023/12/14 01:39:34;;;;;;;104.63;38.70;;;1.50;99.90;;;;;;5034557;28;20022;-78
2023/12/14 01:42:00;;;;;;;156.48;53.85;;;1.50;99.90;;;;;;5034517;28;20029;-75
2023/12/14 01:44:25;;;;;;;153.10;46.22;;;1.50;99.90;;;;;;5035673;28;20021;-74
2023/12/14 01:46:51;;;;;;;122.95;50.85;;;1.50;99.90;;;;;;5035779;28;20529;-75
2023/12/14 01:49:16;;;;;;;134.90;39.72;;;1.50;99.90;;;;;;5035613;28;20033;-76
2023/12/14 01:51:42;;;;;;;123.00;34.97;;;1.50;99.90;;;;;;5035531;28;20443;-78
2023/12/14 01:54:08;;;;;;;110.43;35.58;;;1.50;99.90;;;;;;5035262;28;20029;-78
2023/12/14 01:56:33;;;;;;;143.23;47.85;;;1.50;99.90;;;;;;5033848;28;20029;-74
2023/12/14 01:58:59;;;;;;;109.60;44.38;;;1.50;99.90;;;;;;5034189;28;20022;-74
2023/12/14 02:01:31;;;;;;;90.05;40.42;;;1.50;99.90;;;;;;5028706;28;20414;-74
2023/12/14 02:03:56;;;;;;;105.83;37.20;;;1.50;99.90;;;;;;5034987;28;20022;-79
2023/12/14 02:06:22;;;;;;;82.30;33.70;;;1.50;99.90;;;;;;5034844;28;20025;-79
2023/12/14 02:08:48;;;;;;;103.57;37.25;;;1.50;99.90;;;;;;5027784;28;20602;-74
2023/12/14 02:11:14;;;;;;;81.28;30.70;;;1.50;99.90;;;;;;5030053;28;20032;-74
2023/12/14 02:13:39;;;;;;;75.70;32.05;;;1.50;99.90;;;;;;5035113;28;20030;-74
2023/12/14 02:16:05;;;;;;;78.68;33.10;;;1.60;99.90;;;;;;5033703;28;20376;-77
2023/12/14 02:18:31;;;;;;;126.40;39.40;;;1.50;99.90;;;;;;5033839;28;20024;-74
2023/12/14 02:20:56;;;;;;;103.65;31.63;;;1.60;99.90;;;;;;5035233;28;20036;-74
2023/12/14 02:23:22;;;;;;;89.38;30.95;;;1.50;99.90;;;;;;5034557;28;20025;-77
2023/12/14 02:25:47;;;;;;;164.25;52.00;;;1.50;99.90;;;;;;5035087;28;20072;-74
2023/12/14 02:28:13;;;;;;;72.97;36.60;;;1.50;99.90;;;;;;5034739;28;20551;-73
2023/12/14 02:30:39;;;;;;;103.75;39.95;;;1.50;99.90;;;;;;5034804;28;20022;-74
2023/12/14 02:33:04;;;;;;;79.57;30.55;;;1.50;99.90;;;;;;5034400;28;20050;-78
2023/12/14 02:35:30;;;;;;;76.90;33.53;;;1.50;99.90;;;;;;5034223;28;20037;-78
2023/12/14 02:37:56;;;;;;;76.53;31.73;;;1.50;99.90;;;;;;5034840;28;20025;-78
2023/12/14 02:40:21;;;;;;;77.30;33.42;;;1.60;99.90;;;;;;5033355;28;20014;-78
2023/12/14 02:42:47;;;;;;;68.95;27.38;;;1.60;99.90;;;;;;5034492;28;20029;-75
2023/12/14 02:45:13;;;;;;;83.75;31.15;;;1.60;99.90;;;;;;5034726;28;20140;-77
2023/12/14 02:47:38;;;;;;;85.22;28.27;;;1.60;99.90;;;;;;5030175;28;20025;-78
2023/12/14 02:50:05;;;;;;;90.15;29.20;;;1.60;99.90;;;;;;5031528;28;20041;-78
2023/12/14 02:52:30;;;;;;;106.20;33.10;;;1.50;99.90;;;;;;5034295;28;20025;-75
2023/12/14 02:54:56;;;;;;;81.28;29.15;;;1.60;99.90;;;;;;5034276;28;20479;-74
2023/12/14 02:57:21;;;;;;;70.18;31.58;;;1.50;99.90;;;;;;5033061;28;20029;-75
2023/12/14 02:59:47;;;;;;;91.25;33.53;;;1.50;99.90;;;;;;5034279;28;20018;-77
2023/12/14 03:02:13;;;;;;;65.05;26.30;;;1.50;99.90;;;;;;5034489;28;20100;-75
2023/12/14 03:04:42;;;;;;;85.78;35.63;;;1.40;99.90;;;;;;5032768;28;20017;-74
2023/12/14 03:07:07;;;;;;;77.18;29.20;;;1.40;99.90;;;;;;5034676;28;20025;-75
2023/12/14 03:09:33;;;;;;;86.13;30.17;;;1.40;99.90;;;;;;5029510;28;20482;-78
2023/12/14 03:12:00;;;;;;;73.82;27.48;;;1.40;99.90;;;;;;5016469;28;20065;-77
2023/12/14 03:14:25;;;;;;;45.97;21.83;;;1.40;99.90;;;;;;5027112;28;20049;-75
2023/12/14 03:16:52;;;;;;;54.30;23.45;;;1.40;99.90;;;;;;5025056;28;20368;-77
2023/12/14 03:19:18;;;;;;;43.40;23.63;;;1.40;99.90;;;;;;5033950;28;20019;-75
2023/12/14 03:21:43;;;;;;;58.30;27.77;;;1.40;99.90;;;;;;5033848;28;20017;-75
2023/12/14 03:24:09;;;;;;;62.65;28.20;;;1.40;99.90;;;;;;5033964;28;20469;-75
2023/12/14 03:26:35;;;;;;;60.88;26.88;;;1.40;99.90;;;;;;5033677;28;20479;-76
2023/12/14 03:29:01;;;;;;;51.35;24.13;;;1.40;99.90;;;;;;5017949;28;20025;-77
2023/12/14 03:31:27;;;;;;;50.08;22.23;;;1.30;99.90;;;;;;5026925;28;20391;-75
2023/12/14 03:33:52;;;;;;;52.08;21.77;;;1.30;99.90;;;;;;5033736;28;20041;-75
2023/12/14 03:36:18;;;;;;;50.13;21.15;;;1.30;99.90;;;;;;5032094;28;20017;-78
2023/12/14 03:38:44;;;;;;;55.95;22.63;;;1.30;99.90;;;;;;5029097;28;20105;-78
2023/12/14 03:41:09;;;;;;;50.33;21.42;;;1.30;99.90;;;;;;5029109;28;20026;-79
2023/12/14 03:43:35;;;;;;;53.47;21.60;;;1.30;99.90;;;;;;5028867;28;20101;-76
2023/12/14 03:46:01;;;;;;;52.70;22.15;;;1.30;99.90;;;;;;5025179;28;20024;-74
2023/12/14 03:48:26;;;;;;;56.60;23.90;;;1.30;99.90;;;;;;5033532;28;20437;-74
2023/12/14 03:50:52;;;;;;;61.22;21.70;;;1.30;99.90;;;;;;5033565;28;20022;-74
2023/12/14 03:53:17;;;;;;;55.30;21.80;;;1.30;99.90;;;;;;5048030;28;20071;-75
2023/12/14 03:55:43;;;;;;;54.35;21.25;;;1.30;99.90;;;;;;5032541;28;20060;-74
2023/12/14 03:58:09;;;;;;;50.17;22.52;;;1.30;99.90;;;;;;5029092;28;20022;-78
2023/12/14 04:00:34;;;;;;;51.15;23.00;;;1.40;99.90;;;;;;5033076;28;20014;-75
2023/12/14 04:03:00;;;;;;;64.28;25.10;;;1.40;99.90;;;;;;5033204;28;20030;-78
2023/12/14 04:05:25;;;;;;;48.13;20.95;;;1.40;99.90;;;;;;5032957;28;20036;-78
2023/12/14 04:07:51;;;;;;;46.75;21.38;;;1.40;99.90;;;;;;5033091;28;20053;-78
2023/12/14 04:10:17;;;;;;;58.85;24.27;;;1.40;99.90;;;;;;5033263;28;20026;-74
2023/12/14 04:12:42;;;;;;;51.92;20.50;;;1.40;99.90;;;;;;5031125;28;20129;-75
2023/12/14 04:15:09;;;;;;;49.83;21.80;;;1.40;99.90;;;;;;5031760;28;20029;-74
2023/12/14 04:17:35;;;;;;;66.20;24.02;;;1.40;99.90;;;;;;5032630;28;20022;-77
2023/12/14 04:20:02;;;;;;;61.20;23.60;;;1.40;99.90;;;;;;5028520;28;20145;-74
2023/12/14 04:22:29;;;;;;;46.97;21.45;;;1.40;99.90;;;;;;5032024;28;20052;-78
2023/12/14 04:24:55;;;;;;;48.33;20.65;;;1.40;99.90;;;;;;5032428;28;20026;-78
2023/12/14 04:27:20;;;;;;;44.65;20.05;;;1.40;99.90;;;;;;5032661;28;20479;-74
2023/12/14 04:29:46;;;;;;;44.97;21.05;;;1.40;99.90;;;;;;5031501;28;20018;-74
2023/12/14 04:32:12;;;;;;;46.10;22.50;;;1.40;99.90;;;;;;5027879;28;20045;-75
2023/12/14 04:34:38;;;;;;;53.88;23.67;;;1.40;99.90;;;;;;5023377;28;20041;-74
2023/12/14 04:37:03;;;;;;;40.30;20.85;;;1.40;99.90;;;;;;5031139;28;20014;-74
2023/12/14 04:39:29;;;;;;;48.78;21.73;;;1.40;99.90;;;;;;5031648;28;20034;-75
2023/12/14 04:41:55;;;;;;;46.00;20.17;;;1.50;99.90;;;;;;5032537;28;20049;-75
2023/12/14 04:44:21;;;;;;;47.15;21.10;;;1.40;99.90;;;;;;5031491;28;20045;-75
2023/12/14 04:46:48;;;;;;;45.53;21.20;;;1.50;99.90;;;;;;5032363;28;20021;-74
2023/12/14 04:49:14;;;;;;;56.78;24.30;;;1.50;99.90;;;;;;5032725;28;20022;-74
2023/12/14 04:51:40;;;;;;;46.70;19.45;;;1.50;99.90;;;;;;5030999;28;20108;-75
2023/12/14 04:54:06;;;;;;;37.35;19.65;;;1.50;99.90;;;;;;5025349;28;20034;-75
2023/12/14 04:56:31;;;;;;;39.08;20.00;;;1.40;99.90;;;;;;5047678;28;20026;-78
2023/12/14 04:58:58;;;;;;;37.97;18.13;;;1.40;99.90;;;;;;5027927;28;20029;-74
2023/12/14 05:01:26;;;;;;;46.28;21.33;;;1.40;99.90;;;;;;5029882;28;20402;-77
2023/12/14 05:03:52;;;;;;;38.25;18.75;;;1.40;99.90;;;;;;5032386;28;20022;-75
2023/12/14 05:06:18;;;;;;;36.03;18.77;;;1.50;99.90;;;;;;5032112;28;20017;-78
2023/12/14 05:08:44;;;;;;;42.47;19.38;;;1.40;99.90;;;;;;5032469;28;20036;-74
2023/12/14 05:11:09;;;;;;;38.22;19.08;;;1.40;99.90;;;;;;5032363;28;20014;-74
2023/12/14 05:13:35;;;;;;;46.25;22.17;;;1.40;99.90;;;;;;5032412;28;20104;-78
2023/12/14 05:16:00;;;;;;;47.97;21.30;;;1.40;99.90;;;;;;5030998;28;20021;-78
2023/12/14 05:18:27;;;;;;;44.20;20.75;;;1.40;99.90;;;;;;5032552;28;20024;-78
2023/12/14 05:20:53;;;;;;;44.42;19.23;;;1.40;99.90;;;;;;5032275;28;20029;-75
2023/12/14 05:23:19;;;;;;;41.50;19.30;;;1.40;99.90;;;;;;5031119;28;20025;-75
2023/12/14 05:25:44;;;;;;;36.75;16.63;;;1.40;99.90;;;;;;5032175;28;20029;-75
2023/12/14 05:28:10;;;;;;;32.33;15.10;;;1.30;99.90;;;;;;5032456;28;20018;-74
2023/12/14 05:30:36;;;;;;;34.88;16.15;;;1.30;99.90;;;;;;5032244;28;20117;-78
2023/12/14 05:33:02;;;;;;;33.97;16.40;;;1.30;99.90;;;;;;5023812;28;20069;-78
2023/12/14 05:35:27;;;;;;;38.55;17.13;;;1.30;99.90;;;;;;5031964;28;20505;-74
2023/12/14 05:37:53;;;;;;;34.80;16.90;;;1.30;99.90;;;;;;5050693;28;20080;-75
2023/12/14 05:40:19;;;;;;;38.63;16.75;;;1.30;99.90;;;;;;5035828;28;20482;-78
2023/12/14 05:42:45;;;;;;;41.30;16.00;;;1.20;99.90;;;;;;5035669;28;20075;-75
2023/12/14 05:45:10;;;;;;;33.55;14.75;;;1.20;99.90;;;;;;5035551;28;20060;-75
2023/12/14 05:47:37;;;;;;;33.72;16.55;;;1.30;99.90;;;;;;5035716;28;20025;-75
2023/12/14 05:50:04;;;;;;;40.17;16.08;;;1.30;99.90;;;;;;5035590;28;20053;-78
2023/12/14 05:52:30;;;;;;;31.17;14.65;;;1.30;99.90;;;;;;5035585;28;20021;-78
2023/12/14 05:54:56;;;;;;;34.67;15.80;;;1.30;99.90;;;;;;5035481;28;20034;-74
2023/12/14 05:57:22;;;;;;;38.13;16.98;;;1.30;99.90;;;;;;5033269;28;20108;-74
2023/12/14 05:59:47;;;;;;;32.85;15.50;;;1.30;99.90;;;;;;5033032;28;20021;-75
2023/12/14 06:02:13;;;;;;;34.80;16.80;;;1.40;99.90;;;;;;5029558;28;20045;-74
2023/12/14 06:04:38;;;;;;;29.88;15.43;;;1.40;99.90;;;;;;5030920;28;20064;-75
2023/12/14 06:07:04;;;;;;;27.83;15.30;;;1.40;99.90;;;;;;5034056;28;20010;-78
2023/12/14 06:09:33;;;;;;;30.80;15.18;;;1.40;99.90;;;;;;5033824;28;20021;-78
2023/12/14 06:12:04;;;;;;;29.63;14.60;;;1.40;99.90;;;;;;5034160;28;20163;-78
2023/12/14 06:14:31;;;;;;;25.85;14.07;;;1.40;99.90;;;;;;5032639;28;20041;-78
2023/12/14 06:16:57;;;;;;;28.33;14.60;;;1.40;99.90;;;;;;5030179;28;20071;-78
2023/12/14 06:19:23;;;;;;;27.67;12.95;;;1.30;99.90;;;;;;5028136;28;20022;-75
2023/12/14 06:21:49;;;;;;;29.58;14.43;;;1.40;99.90;;;;;;5033681;28;20021;-78
2023/12/14 06:24:14;;;;;;;31.02;13.35;;;1.30;99.90;;;;;;5030465;28;20022;-78
2023/12/14 06:26:42;;;;;;;30.75;14.25;;;1.30;99.90;;;;;;5032683;28;20029;-75
2023/12/14 06:29:08;;;;;;;27.40;13.73;;;1.30;99.90;;;;;;5033987;28;20450;-77
2023/12/14 06:31:34;;;;;;;25.50;13.20;;;1.30;99.90;;;;;;5024696;28;20026;-74
2023/12/14 06:34:03;;;;;;;24.33;13.50;;;1.30;99.90;;;;;;5031384;28;20048;-75
2023/12/14 06:36:29;;;;;;;26.60;13.45;;;1.30;99.90;;;;;;5033708;28;20026;-76
2023/12/14 06:38:55;;;;;;;23.92;13.48;;;1.30;99.90;;;;;;5032668;28;20101;-74
2023/12/14 06:41:22;;;;;;;24.98;15.27;;;1.30;99.90;;;;;;5033424;28;20093;-75
2023/12/14 06:43:48;;;;;;;21.48;12.88;;;1.30;99.90;;;;;;5028074;28;20092;-78
2023/12/14 06:46:14;;;;;;;23.55;12.85;;;1.30;99.90;;;;;;5023986;28;20021;-74
2023/12/14 06:48:40;;;;;;;24.40;13.60;;;1.40;99.90;;;;;;5025464;28;20356;-74
2023/12/14 06:51:06;;;;;;;22.63;13.32;;;1.40;99.90;;;;;;5032518;28;20033;-74
2023/12/14 06:53:32;;;;;;;24.20;12.95;;;1.40;99.90;;;;;;5032400;28;20026;-75
2023/12/14 06:55:57;;;;;;;21.45;13.02;;;1.50;99.90;;;;;;5032712;28;20025;-74
2023/12/14 06:58:23;;;;;;;21.80;13.52;;;1.40;99.90;;;;;;5032999;28;20026;-78
2023/12/14 07:00:48;;;;;;;21.60;12.85;;;1.40;99.90;;;;;;5029684;28;20018;-76
2023/12/14 07:03:14;;;;;;;25.45;13.98;;;1.50;99.90;;;;;;5032005;28;20029;-74
2023/12/14 07:05:40;;;;;;;22.13;13.55;;;1.50;99.90;;;;;;5029749;28;20029;-74
2023/12/14 07:08:05;;;;;;;20.65;13.43;;;1.50;99.90;;;;;;5031926;28;20040;-74
2023/12/14 07:10:32;;;;;;;23.60;12.95;;;1.50;99.90;;;;;;5031670;28;20040;-77
2023/12/14 07:12:58;;;;;;;25.08;13.43;;;1.50;99.90;;;;;;5032837;28;20490;-75
2023/12/14 07:15:24;;;;;;;26.63;15.27;;;1.50;99.90;;;;;;5031908;28;20520;-74
2023/12/14 07:17:50;;;;;;;30.50;16.88;;;1.50;99.90;;;;;;5029496;28;20037;-78
2023/12/14 07:20:16;;;;;;;31.15;16.88;;;1.50;99.90;;;;;;5030551;28;20391;-77
2023/12/14 07:22:41;;;;;;;30.48;17.08;;;1.50;99.90;;;;;;5020810;28;20097;-77
2023/12/14 07:25:08;;;;;;;36.55;17.45;;;1.50;99.90;;;;;;5027304;28;20030;-78
2023/12/14 07:27:33;;;;;;;31.10;16.42;;;1.50;99.90;;;;;;5023070;28;20032;-78
2023/12/14 07:29:59;;;;;;;33.13;17.17;;;1.50;99.90;;;;;;5026357;28;20093;-77
2023/12/14 07:32:25;;;;;;;30.85;16.15;;;1.60;99.90;;;;;;5026568;28;20057;-78
2023/12/14 07:34:50;;;;;;;32.90;16.80;;;1.60;99.90;;;;;;5033540;28;20460;-78
2023/12/14 07:37:16;;;;;;;40.67;21.67;;;1.60;99.90;;;;;;5025580;28;20045;-74
2023/12/14 07:39:42;;;;;;;47.08;23.48;;;1.60;99.90;;;;;;5027111;28;20024;-74
2023/12/14 07:42:08;;;;;;;41.75;22.80;;;1.60;99.90;;;;;;5040875;28;20116;-78
2023/12/14 07:44:35;;;;;;;38.75;20.25;;;1.60;99.90;;;;;;5026399;28;20038;-78
2023/12/14 07:47:01;;;;;;;42.35;22.33;;;1.60;99.90;;;;;;5026076;28;20083;-74
2023/12/14 07:49:26;;;;;;;54.10;24.65;;;1.60;99.90;;;;;;5030047;28;20021;-74
2023/12/14 07:51:52;;;;;;;36.80;20.45;;;1.60;99.90;;;;;;5028212;28;20025;-74
2023/12/14 07:54:18;;;;;;;38.55;21.00;;;1.60;99.90;;;;;;5030008;28;20037;-74
2023/12/14 07:56:44;;;;;;;40.65;20.90;;;1.60;99.90;;;;;;5030201;28;20026;-77
2023/12/14 07:59:10;;;;;;;45.88;22.02;;;1.70;99.90;;;;;;5030021;28;20071;-78
2023/12/14 08:01:36;;;;;;;37.67;20.25;;;1.70;99.90;;;;;;5028111;28;20047;-78
2023/12/14 08:04:03;;;;;;;35.58;17.02;;;1.70;99.90;;;;;;5031395;28;20033;-78
2023/12/14 08:06:29;;;;;;;37.22;20.15;;;1.70;99.90;;;;;;5030816;28;20022;-78
2023/12/14 08:08:57;;;;;;;61.05;31.63;;;1.70;99.90;;;;;;5026562;28;20530;-78
2023/12/14 08:11:24;;;;;;;59.00;31.80;;;1.80;99.90;;;;;;5028842;28;20470;-74
2023/12/14 08:13:49;;;;;;;58.03;29.80;;;1.80;99.90;;;;;;5030083;28;20030;-74
2023/12/14 08:16:17;;;;;;;55.13;28.27;;;1.80;99.90;;;;;;5046142;28;20365;-75
2023/12/14 08:18:45;;;;;;;56.38;28.30;;;1.80;99.90;;;;;;5028386;28;20100;-74
2023/12/14 08:21:11;;;;;;;42.53;20.05;;;1.80;99.90;;;;;;5021548;28;20590;-75
2023/12/14 08:23:37;;;;;;;47.67;20.83;;;1.80;99.90;;;;;;5031251;28;20021;-74
2023/12/14 08:26:02;;;;;;;38.25;19.23;;;1.80;99.90;;;;;;5032222;28;20026;-74
2023/12/14 08:28:28;;;;;;;35.65;17.92;;;1.80;99.90;;;;;;5030110;28;20022;-74
2023/12/14 08:30:54;;;;;;;38.45;19.65;;;1.80;99.90;;;;;;5032428;28;20088;-77
2023/12/14 08:33:20;;;;;;;42.40;19.90;;;1.90;99.90;;;;;;5030387;28;20499;-74
2023/12/14 08:35:45;;;;;;;42.15;20.17;;;1.90;99.90;;;;;;5032718;28;20055;-78
2023/12/14 08:38:11;;;;;;;43.28;20.25;;;2.00;99.90;;;;;;5031723;28;20033;-74
2023/12/14 08:40:37;;;;;;;37.17;19.92;;;2.00;99.90;;;;;;5032676;28;20033;-74
2023/12/14 08:43:03;;;;;;;42.55;23.27;;;2.00;99.90;;;;;;5032311;28;20029;-78
2023/12/14 08:45:29;;;;;;;49.63;22.55;;;2.00;99.90;;;;;;5033002;28;20038;-74
2023/12/14 08:47:55;;;;;;;54.70;26.75;;;2.10;99.90;;;;;;5048084;28;20094;-77
2023/12/14 08:50:20;;;;;;;40.25;22.23;;;2.10;99.90;;;;;;5047655;28;20041;-77
2023/12/14 08:52:46;;;;;;;49.67;25.65;;;2.00;99.90;;;;;;5032414;28;20024;-78
2023/12/14 08:55:12;;;;;;;63.97;30.20;;;2.10;99.90;;;;;;5032474;28;20040;-77
2023/12/14 08:57:38;;;;;;;47.53;23.08;;;2.00;99.90;;;;;;5027253;28;20022;-78
2023/12/14 09:00:06;;;;;;;40.55;20.17;;;2.10;99.90;;;;;;5027891;28;20026;-79
2023/12/14 09:02:32;;;;;;;70.30;29.10;;;2.00;99.90;;;;;;5031630;28;20075;-78
2023/12/14 09:04:57;;;;;;;55.85;27.92;;;2.10;99.90;;;;;;5032139;28;20026;-79
2023/12/14 09:07:23;;;;;;;32.97;17.85;;;2.10;99.90;;;;;;5018466;28;20135;-76
2023/12/14 09:09:49;;;;;;;41.58;19.55;;;2.10;99.90;;;;;;5011646;28;20479;-76
2023/12/14 09:12:14;;;;;;;37.38;19.35;;;2.10;99.90;;;;;;5042970;28;20044;-78
2023/12/14 09:14:40;;;;;;;43.75;20.27;;;2.10;99.90;;;;;;5051479;28;20033;-78
2023/12/14 09:17:05;;;;;;;49.33;23.48;;;2.20;99.90;;;;;;5036342;28;20387;-78
2023/12/14 09:19:31;;;;;;;52.33;24.52;;;2.20;99.90;;;;;;5036020;28;20096;-78
2023/12/14 09:21:57;;;;;;;46.42;21.48;;;2.30;99.90;;;;;;5023279;28;20117;-76
2023/12/14 09:24:23;;;;;;;45.03;20.58;;;2.30;99.90;;;;;;5031908;28;20025;-79
2023/12/14 09:26:49;;;;;;;38.50;19.20;;;2.30;99.90;;;;;;5036016;28;20028;-76
2023/12/14 09:29:15;;;;;;;39.42;19.00;;;2.40;99.90;;;;;;5051478;28;20108;-76
2023/12/14 09:31:42;;;;;;;38.97;19.70;;;2.30;99.90;;;;;;5035957;28;20018;-78
2023/12/14 09:34:08;;;;;;;36.20;18.42;;;2.40;99.90;;;;;;5051147;28;20053;-75
2023/12/14 09:36:34;;;;;;;38.83;20.15;;;2.30;99.90;;;;;;5035387;28;20627;-78
2023/12/14 09:38:59;;;;;;;32.50;18.08;;;2.30;99.90;;;;;;5035571;28;20025;-78
2023/12/14 09:41:25;;;;;;;41.17;20.38;;;2.30;99.90;;;;;;5035807;28;20387;-78
2023/12/14 09:43:52;;;;;;;42.30;21.88;;;2.30;99.90;;;;;;5031343;28;20112;-79
2023/12/14 09:46:18;;;;;;;44.15;20.73;;;2.30;99.90;;;;;;5028810;28;20033;-77
2023/12/14 09:48:45;;;;;;;40.95;20.38;;;2.40;99.90;;;;;;5034670;28;20360;-77
2023/12/14 09:51:12;;;;;;;34.28;16.95;;;2.40;99.90;;;;;;5032697;28;20717;-77
2023/12/14 09:53:38;;;;;;;41.13;20.10;;;2.40;99.90;;;;;;5034453;28;20026;-77
2023/12/14 09:56:04;;;;;;;36.60;18.58;;;2.40;99.90;;;;;;5034960;28;20502;-78
2023/12/14 09:58:33;;;;;;;40.10;20.85;;;2.50;99.90;;;;;;5028413;28;20025;-79
2023/12/14 10:01:00;;;;;;;42.38;21.65;;;2.50;99.90;;;;;;5032960;28;20068;-79
2023/12/14 10:03:28;;;;;;;43.17;22.42;;;2.50;99.90;;;;;;5033012;28;20123;-79
2023/12/14 10:05:55;;;;;;;37.10;20.90;;;2.60;99.90;;;;;;5027095;28;20036;-79
2023/12/14 10:08:21;;;;;;;40.65;19.60;;;2.60;99.90;;;;;;5034490;28;20382;-77
2023/12/14 10:10:51;;;;;;;42.17;19.20;;;2.60;99.90;;;;;;5034718;28;20021;-80
2023/12/14 10:13:17;;;;;;;43.10;19.02;;;2.60;99.90;;;;;;5030605;28;20026;-76
2023/12/14 10:15:48;;;;;;;42.78;20.75;;;2.70;99.90;;;;;;5033113;28;20033;-76
2023/12/14 10:18:23;;;;;;;42.38;21.48;;;2.70;99.90;;;;;;5033682;28;20494;-78
2023/12/14 10:20:48;;;;;;;38.30;18.80;;;2.70;99.90;;;;;;5034951;28;20104;-77
2023/12/14 10:23:14;;;;;;;40.17;22.40;;;2.70;99.90;;;;;;5033054;28;20116;-79
2023/12/14 10:25:42;;;;;;;38.78;20.92;;;2.70;99.90;;;;;;5022623;28;20067;-77
2023/12/14 10:28:07;;;;;;;37.63;18.35;;;2.70;99.90;;;;;;5020737;28;20041;-77
2023/12/14 10:30:33;;;;;;;49.95;22.92;;;2.70;99.90;;;;;;5033628;28;20356;-79
2023/12/14 10:32:59;;;;;;;143.13;56.83;;;2.70;99.90;;;;;;5033958;28;20056;-76
2023/12/14 10:35:24;;;;;;;197.65;66.72;;;2.70;99.90;;;;;;5034841;28;20063;-79
2023/12/14 10:37:52;;;;;;;214.82;67.43;;;2.80;99.90;;;;;;5032145;28;20029;-79
2023/12/14 10:40:18;;;;;;;50.95;22.80;;;2.80;99.90;;;;;;5028273;28;20387;-76
2023/12/14 10:42:45;;;;;;;285.30;93.97;;;2.80;99.90;;;;;;5027107;28;20029;-79
2023/12/14 10:45:16;;;;;;;407.85;118.50;;;2.80;99.90;;;;;;5048232;28;20544;-79
2023/12/14 10:47:47;;;;;;;260.13;78.97;;;2.70;99.90;;;;;;5031308;28;20136;-79
2023/12/14 10:50:13;;;;;;;211.30;66.28;;;2.70;99.90;;;;;;5032743;28;20018;-79
2023/12/14 10:52:40;;;;;;;257.60;89.45;;;2.70;99.90;;;;;;5033331;28;20029;-79
2023/12/14 10:55:33;;;;;;;206.75;71.63;;;2.70;99.90;;;;;;5049741;28;20033;-77
2023/12/14 10:57:58;;;;;;;211.60;74.30;;;2.70;99.90;;;;;;5032340;28;20030;-77
2023/12/14 11:00:24;;;;;;;149.18;54.47;;;2.70;99.90;;;;;;5034676;28;20148;-76
2023/12/14 11:02:52;;;;;;;99.72;38.15;;;2.70;99.90;;;;;;5034196;28;20364;-77
2023/12/14 11:05:22;;;;;;;61.47;26.92;;;2.70;99.90;;;;;;5029786;28;20113;-77
2023/12/14 11:07:55;;;;;;;69.55;28.98;;;2.70;99.90;;;;;;5030186;28;20032;-79
2023/12/14 11:10:28;;;;;;;45.53;22.33;;;2.70;99.90;;;;;;5029762;28;20022;-77
2023/12/14 11:13:02;;;;;;;48.92;23.05;;;2.70;99.90;;;;;;5032054;28;20028;-77
2023/12/14 11:15:29;;;;;;;50.72;23.33;;;2.70;99.90;;;;;;5034207;28;20044;-78
2023/12/14 11:18:10;;;;;;;48.67;22.25;;;2.70;99.90;;;;;;5027235;28;20091;-76
2023/12/14 11:20:45;;;;;;;60.85;26.90;;;2.60;99.90;;;;;;5028584;28;20021;-77
2023/12/14 11:23:13;;;;;;;57.17;23.98;;;2.60;99.90;;;;;;5034053;28;20029;-79
2023/12/14 11:25:40;;;;;;;47.90;23.00;;;2.60;99.90;;;;;;5031758;28;20100;-79
2023/12/14 11:28:07;;;;;;;50.47;22.70;;;2.60;99.90;;;;;;5034187;28;20048;-77
2023/12/14 11:30:35;;;;;;;51.22;24.25;;;2.50;99.90;;;;;;5049321;28;20423;-79
2023/12/14 11:33:00;;;;;;;66.45;27.52;;;2.50;99.90;;;;;;5033987;28;20063;-76
2023/12/14 11:35:26;;;;;;;56.05;25.77;;;2.50;99.90;;;;;;5048919;28;20029;-79
2023/12/14 11:37:52;;;;;;;57.58;26.42;;;2.50;99.90;;;;;;5029242;28;20030;-76
2023/12/14 11:40:22;;;;;;;50.63;25.25;;;2.50;99.90;;;;;;5030736;28;20026;-79
2023/12/14 11:43:01;;;;;;;55.25;26.35;;;2.60;99.90;;;;;;5034192;28;20020;-79
2023/12/14 11:45:27;;;;;;;63.47;27.38;;;2.60;99.90;;;;;;5029000;28;20026;-78
2023/12/14 11:47:53;;;;;;;66.28;26.80;;;2.60;99.90;;;;;;5026215;28;20022;-79
2023/12/14 11:50:20;;;;;;;61.92;29.17;;;2.60;99.90;;;;;;5028850;28;20022;-80
2023/12/14 11:52:46;;;;;;;76.05;29.90;;;2.60;99.90;;;;;;5025965;28;20025;-79
2023/12/14 11:55:11;;;;;;;72.18;27.25;;;2.60;99.90;;;;;;5033528;28;20079;-77
2023/12/14 11:57:37;;;;;;;99.15;44.13;;;2.60;99.90;;;;;;5033406;28;20082;-77
2023/12/14 12:00:04;;;;;;;90.38;36.72;;;2.60;99.90;;;;;;5033229;28;20056;-79
2023/12/14 12:02:30;;;;;;;114.22;42.03;;;2.60;99.90;;;;;;5033447;28;20032;-77
2023/12/14 12:04:55;;;;;;;125.40;47.17;;;2.60;99.90;;;;;;5019910;28;20021;-79
2023/12/14 12:07:21;;;;;;;169.73;58.83;;;2.60;99.90;;;;;;5021203;28;20026;-77
2023/12/14 12:09:47;;;;;;;333.45;108.43;;;2.60;99.90;;;;;;5018934;28;20025;-76
2023/12/14 12:12:13;;;;;;;566.70;211.02;;;2.50;99.90;;;;;;5021197;28;20093;-79
2023/12/14 12:14:39;;;;;;;408.52;139.70;;;2.50;99.90;;;;;;5030887;28;20080;-79
2023/12/14 12:17:06;;;;;;;337.70;116.90;;;2.50;99.90;;;;;;5028558;28;20030;-79
2023/12/14 12:19:36;;;;;;;742.22;297.42;;;2.50;99.90;;;;;;5031380;28;20022;-77
2023/12/14 12:22:02;;;;;;;124.55;46.85;;;2.50;99.90;;;;;;5032892;28;20029;-79
2023/12/14 12:24:28;;;;;;;110.38;40.45;;;2.50;99.90;;;;;;5028351;28;20044;-77
2023/12/14 12:26:55;;;;;;;205.10;73.13;;;2.50;99.90;;;;;;5026770;28;20022;-79
2023/12/14 12:29:23;;;;;;;363.88;126.88;;;2.60;99.90;;;;;;5033114;28;20049;-77
2023/12/14 12:31:49;;;;;;;260.55;100.50;;;2.50;99.90;;;;;;5032512;28;20028;-77